Time;durP1;ratioP1;P1;durP2;ratioP2;P2;SDS_P1;SDS_P2;PMS_P1;PMS_P2;Temp;Humidity;BMP_temperature;BMP_pressure;BME280_temperature;BME280_humidity;BME280_pressure;Samples;Min_cycle;Max_cycle;Signal;HPM_P1;HPM_P2
2022/03/10 00:01:29;;;;;;;;;39.00;31.50;;;;;11.28;52.10;101740.75;5049482;28;45553;-63
2022/03/10 00:03:55;;;;;;;;;42.50;35.25;;;;;11.26;52.24;101739.97;5050592;28;45973;-64
2022/03/10 00:06:21;;;;;;;;;37.75;35.00;;;;;11.24;52.27;101736.56;5047834;28;45694;-66
2022/03/10 00:08:47;;;;;;;;;45.00;36.00;;;;;11.24;52.32;101741.00;5049454;28;45535;-67
2022/03/10 00:11:12;;;;;;;;;41.00;35.50;;;;;11.21;52.39;101735.84;5053085;28;45463;-67
2022/03/10 00:13:38;;;;;;;;;35.75;33.25;;;;;11.19;52.02;101734.13;5046908;28;45342;-67
2022/03/10 00:16:04;;;;;;;;;48.25;36.25;;;;;11.18;51.75;101739.47;5047767;28;45340;-67
2022/03/10 00:18:29;;;;;;;;;44.00;35.00;;;;;11.17;51.78;101740.41;5031759;28;45711;-67
2022/03/10 00:20:55;;;;;;;;;40.00;35.00;;;;;11.16;52.16;101736.91;5049143;28;45357;-66
2022/03/10 00:23:20;;;;;;;;;42.75;37.25;;;;;11.15;51.87;101739.63;5040479;28;45756;-66
2022/03/10 00:25:45;;;;;;;;;43.50;36.75;;;;;11.13;52.48;101733.56;5039030;28;45490;-66
2022/03/10 00:28:11;;;;;;;;;40.75;32.50;;;;;11.08;52.56;101731.16;5044147;28;45368;-66
2022/03/10 00:30:36;;;;;;;;;51.25;37.50;;;;;11.05;52.15;101739.16;5054827;28;45401;-66
2022/03/10 00:33:02;;;;;;;;;47.50;36.00;;;;;11.05;52.74;101738.31;5060284;28;45410;-67
2022/03/10 00:35:28;;;;;;;;;49.00;38.25;;;;;11.02;52.64;101738.47;5060633;28;45419;-65
2022/03/10 00:37:55;;;;;;;;;45.50;37.75;;;;;10.99;52.80;101739.47;5060369;28;45427;-66
2022/03/10 00:40:22;;;;;;;;;42.00;33.75;;;;;10.99;52.45;101746.53;5049714;28;45458;-66
2022/03/10 00:42:48;;;;;;;;;37.75;32.75;;;;;10.94;52.37;101749.34;5040202;28;45516;-66
2022/03/10 00:45:14;;;;;;;;;43.25;35.25;;;;;10.93;52.86;101745.00;5039750;28;45440;-66
2022/03/10 00:47:40;;;;;;;;;50.00;35.25;;;;;10.92;52.66;101742.44;5040143;28;45291;-66
2022/03/10 00:50:07;;;;;;;;;45.00;37.50;;;;;10.87;53.00;101747.91;5040381;28;45511;-66
2022/03/10 00:52:38;;;;;;;;;40.50;31.75;;;;;10.86;53.27;101748.84;5057372;28;45963;-66
2022/03/10 00:55:04;;;;;;;;;37.50;33.00;;;;;10.80;52.50;101747.31;5059765;28;45396;-66
2022/03/10 00:57:29;;;;;;;;;39.75;35.50;;;;;10.78;52.55;101743.91;5060029;28;45237;-66
2022/03/10 00:59:54;;;;;;;;;47.00;35.25;;;;;10.74;52.81;101742.31;5060216;28;45345;-66
2022/03/10 01:02:20;;;;;;;;;44.75;38.00;;;;;10.71;52.96;101745.09;5059632;28;45440;-66
2022/03/10 01:04:45;;;;;;;;;45.75;34.50;;;;;10.69;52.91;101744.31;5060034;28;45212;-66
2022/03/10 01:07:11;;;;;;;;;41.25;34.25;;;;;10.67;52.91;101750.59;5059888;28;45436;-66
2022/03/10 01:09:37;;;;;;;;;57.00;40.25;;;;;10.65;53.28;101755.91;5048415;28;45519;-66
2022/03/10 01:12:02;;;;;;;;;42.00;36.50;;;;;10.62;53.04;101749.00;5039312;28;45572;-66
2022/03/10 01:14:28;;;;;;;;;50.25;37.75;;;;;10.60;53.62;101750.00;5039611;28;45550;-66
2022/03/10 01:16:56;;;;;;;;;37.25;35.25;;;;;10.59;53.19;101751.78;5039367;28;45416;-66
2022/03/10 01:19:22;;;;;;;;;41.75;32.00;;;;;10.57;53.44;101744.84;5039526;28;45643;-66
2022/03/10 01:21:47;;;;;;;;;44.00;35.00;;;;;10.56;53.54;101754.53;5039108;28;46073;-66
2022/03/10 01:24:13;;;;;;;;;53.25;37.75;;;;;10.55;53.56;101749.31;5039114;28;45310;-66
2022/03/10 01:26:38;;;;;;;;;44.25;35.75;;;;;10.53;53.70;101743.28;5039281;28;45367;-66
2022/03/10 01:29:04;;;;;;;;;42.50;36.00;;;;;10.51;53.70;101745.13;5039209;28;45571;-66
2022/03/10 01:31:29;;;;;;;;;43.00;35.50;;;;;10.47;54.17;101740.91;5038675;28;46030;-66
2022/03/10 01:33:55;;;;;;;;;43.75;35.50;;;;;10.46;53.59;101741.81;5041082;28;45377;-66
2022/03/10 01:36:20;;;;;;;;;38.50;36.00;;;;;10.43;54.26;101740.19;5042052;28;45509;-66
2022/03/10 01:38:46;;;;;;;;;43.00;37.25;;;;;10.41;54.05;101735.88;5042835;28;45475;-66
2022/03/10 01:41:12;;;;;;;;;40.50;34.75;;;;;10.39;54.38;101735.09;5044155;28;45807;-66
2022/03/10 01:43:56;;;;;;;;;42.25;37.75;;;;;10.36;53.67;101743.13;5041458;28;45463;-66
2022/03/10 01:46:23;;;;;;;;;47.50;35.75;;;;;10.33;54.29;101741.47;5048429;28;45737;-66
2022/03/10 01:48:49;;;;;;;;;35.00;30.75;;;;;10.29;53.75;101735.50;5062101;28;45745;-67
2022/03/10 01:51:15;;;;;;;;;42.25;36.75;;;;;10.28;53.85;101731.16;5052123;28;46664;-67
2022/03/10 01:53:42;;;;;;;;;45.25;35.00;;;;;10.25;53.79;101738.31;5055909;28;45371;-67
2022/03/10 01:56:09;;;;;;;;;45.50;36.75;;;;;10.23;53.84;101732.25;5063073;28;45360;-67
2022/03/10 01:58:36;;;;;;;;;34.00;30.00;;;;;10.20;54.12;101727.09;5062963;28;45383;-67
2022/03/10 02:01:02;;;;;;;;;51.50;38.75;;;;;10.19;53.90;101739.41;5062153;28;46085;-67
2022/03/10 02:03:28;;;;;;;;;43.75;36.25;;;;;10.17;53.83;101735.09;5062602;28;45393;-67
2022/03/10 02:05:54;;;;;;;;;40.50;34.75;;;;;10.17;53.97;101730.69;5062870;28;45506;-67
2022/03/10 02:11:04;;;;;;;;;51.00;35.50;;;;;10.12;53.96;101722.16;5042292;28;45814;-67
2022/03/10 02:13:29;;;;;;;;;39.75;33.25;;;;;10.09;53.97;101727.53;5040787;28;45698;-67
2022/03/10 02:18:39;;;;;;;;;45.00;37.25;;;;;10.06;54.04;101725.88;5040862;28;45451;-67
2022/03/10 02:21:04;;;;;;;;;49.00;37.75;;;;;10.07;54.17;101727.59;5040416;28;45400;-67
2022/03/10 02:23:30;;;;;;;;;41.75;37.50;;;;;10.06;54.32;101731.16;5041482;28;45419;-67
2022/03/10 02:26:00;;;;;;;;;47.25;36.25;;;;;10.03;54.26;101731.28;5042131;28;45609;-67
2022/03/10 02:28:27;;;;;;;;;38.50;32.50;;;;;10.02;54.70;101728.69;5042165;28;45606;-67
2022/03/10 02:30:53;;;;;;;;;42.00;33.00;;;;;9.97;54.52;101728.91;5042017;28;46400;-67
2022/03/10 02:33:19;;;;;;;;;42.50;37.00;;;;;9.94;54.64;101736.91;5042487;28;45270;-67
2022/03/10 02:35:45;;;;;;;;;33.50;30.00;;;;;9.92;54.66;101736.13;5042419;28;45396;-67
2022/03/10 02:38:20;;;;;;;;;39.75;36.00;;;;;9.90;54.63;101737.09;5042236;28;45672;-67
2022/03/10 02:40:50;;;;;;;;;44.25;34.75;;;;;9.85;54.74;101734.63;5044294;28;46032;-67
2022/03/10 02:43:17;;;;;;;;;52.25;37.75;;;;;9.84;54.52;101738.19;5041293;28;45208;-67
2022/03/10 02:45:42;;;;;;;;;43.00;34.50;;;;;9.83;54.33;101736.47;5040208;28;45384;-67
2022/03/10 02:48:08;;;;;;;;;44.00;35.50;;;;;9.83;54.76;101735.63;5040139;28;45619;-67
2022/03/10 02:50:33;;;;;;;;;28.25;25.00;;;;;9.83;54.53;101740.91;5044212;28;46047;-66
2022/03/10 02:52:59;;;;;;;;;39.00;32.50;;;;;9.83;53.90;101741.75;5062639;28;45546;-66
2022/03/10 02:55:24;;;;;;;;;39.00;33.75;;;;;9.83;54.09;101739.13;5061814;28;45281;-66
2022/03/10 02:57:50;;;;;;;;;35.50;29.50;;;;;9.84;53.93;101738.19;5062005;28;45557;-66
2022/03/10 03:00:17;;;;;;;;;38.50;31.50;;;;;9.84;53.49;101732.94;5062269;28;46356;-67
2022/03/10 03:02:43;;;;;;;;;34.75;28.00;;;;;9.87;53.15;101738.06;5061760;28;45231;-66
2022/03/10 03:05:12;;;;;;;;;32.50;28.50;;;;;9.90;53.22;101735.31;5062030;28;45185;-66
2022/03/10 03:07:38;;;;;;;;;33.25;28.25;;;;;9.93;52.65;101736.97;5062045;28;45323;-66
2022/03/10 03:10:04;;;;;;;;;38.00;32.75;;;;;9.95;53.26;101741.28;5045960;28;45447;-66
2022/03/10 03:12:30;;;;;;;;;36.75;30.25;;;;;9.95;52.54;101738.63;5040910;28;45736;-66
2022/03/10 03:14:56;;;;;;;;;26.50;26.50;;;;;9.97;53.11;101742.06;5040081;28;45310;-66
2022/03/10 03:17:21;;;;;;;;;36.75;31.25;;;;;9.98;52.48;101741.13;5039936;28;45541;-66
2022/03/10 03:19:47;;;;;;;;;32.00;26.50;;;;;9.99;52.77;101742.84;5039703;28;46086;-66
2022/03/10 03:22:12;;;;;;;;;33.50;31.00;;;;;10.01;52.74;101738.38;5040667;28;45392;-66
2022/03/10 03:24:38;;;;;;;;;36.75;31.00;;;;;10.01;52.97;101737.50;5041407;28;45381;-66
2022/03/10 03:27:04;;;;;;;;;27.00;23.00;;;;;10.02;52.57;101750.59;5041501;28;45534;-66
2022/03/10 03:29:29;;;;;;;;;35.50;28.25;;;;;10.02;52.74;101741.84;5040366;28;45412;-67
2022/03/10 03:31:55;;;;;;;;;31.00;29.25;;;;;10.02;52.33;101757.66;5041582;28;45142;-66
2022/03/10 03:34:21;;;;;;;;;37.00;30.00;;;;;10.01;52.96;101753.31;5041550;28;45183;-66
2022/03/10 03:36:47;;;;;;;;;37.50;31.25;;;;;9.99;52.45;101753.38;5041590;28;45454;-66
2022/03/10 03:39:13;;;;;;;;;30.00;26.75;;;;;9.98;52.29;101749.03;5045140;28;46251;-66
2022/03/10 03:41:39;;;;;;;;;36.75;30.50;;;;;9.98;52.37;101758.69;5041473;28;45398;-66
2022/03/10 03:44:08;;;;;;;;;35.50;28.25;;;;;9.99;52.65;101752.50;5041260;28;45491;-66
2022/03/10 03:46:34;;;;;;;;;32.75;29.75;;;;;9.99;52.31;101763.03;5040896;28;45228;-66
2022/03/10 03:49:00;;;;;;;;;35.50;29.25;;;;;9.98;52.70;101754.28;5041082;28;45528;-66
2022/03/10 03:51:26;;;;;;;;;36.50;32.00;;;;;9.97;52.66;101760.47;5048927;28;45418;-66
2022/03/10 03:53:51;;;;;;;;;35.50;26.75;;;;;9.96;52.82;101758.78;5060757;28;45553;-66
2022/03/10 03:56:17;;;;;;;;;34.00;34.00;;;;;9.96;52.52;101757.91;5060714;28;45534;-66
2022/03/10 03:58:43;;;;;;;;;41.25;32.00;;;;;9.94;52.72;101760.59;5060914;28;45262;-67
2022/03/10 04:01:08;;;;;;;;;38.50;32.75;;;;;9.95;52.85;101766.69;5043103;28;45357;-67
2022/03/10 04:03:35;;;;;;;;;42.00;35.75;;;;;9.95;52.69;101756.19;5061359;28;45375;-67
2022/03/10 04:06:00;;;;;;;;;45.50;34.75;;;;;9.93;52.33;101761.50;5061376;28;45436;-67
2022/03/10 04:08:26;;;;;;;;;39.00;34.00;;;;;9.91;52.63;101759.88;5059749;28;46173;-67
2022/03/10 04:10:52;;;;;;;;;36.00;30.50;;;;;9.90;52.73;101760.78;5040879;28;45466;-67
2022/03/10 04:13:19;;;;;;;;;38.50;34.25;;;;;9.88;52.83;101766.13;5039345;28;45437;-67
2022/03/10 04:15:44;;;;;;;;;43.25;32.75;;;;;9.87;52.74;101767.00;5039218;28;45611;-67
2022/03/10 04:18:10;;;;;;;;;38.50;32.25;;;;;9.84;52.69;101761.88;5038994;28;46401;-67
2022/03/10 04:20:35;;;;;;;;;37.25;29.25;;;;;9.81;53.08;101763.78;5038847;28;45419;-67
2022/03/10 04:23:01;;;;;;;;;32.25;31.00;;;;;9.82;52.70;101773.41;5040066;28;45524;-67
2022/03/10 04:25:26;;;;;;;;;36.75;31.50;;;;;9.80;52.84;101765.56;5039951;28;45354;-67
2022/03/10 04:27:56;;;;;;;;;42.75;33.25;;;;;9.80;52.73;101776.09;5039502;28;45391;-67
2022/03/10 04:30:22;;;;;;;;;39.50;33.50;;;;;9.78;53.09;101768.22;5040249;28;45384;-66
2022/03/10 04:32:49;;;;;;;;;32.50;28.00;;;;;9.77;52.97;101776.19;5040648;28;45388;-67
2022/03/10 04:35:16;;;;;;;;;37.25;33.50;;;;;9.76;52.97;101777.13;5040852;28;45313;-67
2022/03/10 04:37:44;;;;;;;;;32.75;31.25;;;;;9.74;53.42;101778.97;5040603;28;45432;-66
2022/03/10 04:40:11;;;;;;;;;56.00;37.25;;;;;9.73;52.99;101779.88;5044491;28;45466;-67
2022/03/10 04:42:38;;;;;;;;;37.75;30.75;;;;;9.72;52.92;101783.44;5040760;28;45301;-67
2022/03/10 04:45:05;;;;;;;;;37.25;32.25;;;;;9.70;52.88;101785.25;5040587;28;45233;-67
2022/03/10 04:47:30;;;;;;;;;36.25;30.25;;;;;9.66;53.41;101783.66;5039915;28;45395;-67
2022/03/10 04:49:57;;;;;;;;;33.00;30.75;;;;;9.61;53.36;101783.81;5040421;28;45380;-67
2022/03/10 04:52:27;;;;;;;;;32.75;27.25;;;;;9.61;53.41;101790.88;5056183;28;45347;-67
2022/03/10 04:54:53;;;;;;;;;31.25;29.75;;;;;9.59;53.60;101787.44;5060447;28;45375;-67
2022/03/10 04:57:19;;;;;;;;;42.00;34.00;;;;;9.57;54.00;101784.88;5056931;28;46050;-67
2022/03/10 04:59:44;;;;;;;;;39.75;27.75;;;;;9.56;53.67;101779.66;5040432;28;45241;-67
2022/03/10 05:02:10;;;;;;;;;33.00;27.00;;;;;9.56;53.59;101785.78;5039972;28;45330;-67
2022/03/10 05:04:35;;;;;;;;;37.50;31.00;;;;;9.54;53.47;101782.34;5040322;28;45373;-67
2022/03/10 05:07:01;;;;;;;;;42.50;36.25;;;;;9.53;53.43;101780.63;5040023;28;45258;-67
2022/03/10 05:09:26;;;;;;;;;31.75;28.00;;;;;9.52;53.88;101776.28;5042320;28;45424;-67
2022/03/10 05:11:52;;;;;;;;;40.75;34.50;;;;;9.52;53.79;101785.03;5043804;28;45438;-67
2022/03/10 05:14:17;;;;;;;;;38.75;35.75;;;;;9.52;53.51;101782.41;5041909;28;45414;-67
2022/03/10 05:16:43;;;;;;;;;35.50;29.50;;;;;9.53;53.83;101780.63;5041476;28;45881;-67
2022/03/10 05:19:08;;;;;;;;;31.50;28.50;;;;;9.52;53.62;101778.91;5041552;28;45519;-66
2022/03/10 05:21:34;;;;;;;;;35.50;31.25;;;;;9.50;53.78;101770.25;5023869;28;45640;-67
2022/03/10 05:24:00;;;;;;;;;33.75;28.50;;;;;9.50;53.92;101776.34;5043037;28;45546;-68
2022/03/10 05:26:26;;;;;;;;;40.75;30.25;;;;;9.49;53.90;101772.00;5043167;28;45406;-68
2022/03/10 05:28:51;;;;;;;;;36.00;30.25;;;;;9.47;54.03;101771.19;5043342;28;45417;-68
2022/03/10 05:31:17;;;;;;;;;30.75;28.00;;;;;9.45;53.75;101773.03;5042393;28;45284;-68
2022/03/10 05:33:42;;;;;;;;;37.50;32.25;;;;;9.45;54.26;101769.53;5043464;28;45368;-68
2022/03/10 05:36:07;;;;;;;;;38.75;34.00;;;;;9.44;54.25;101765.22;5025214;28;45365;-68
2022/03/10 05:38:33;;;;;;;;;34.25;30.25;;;;;9.43;54.42;101766.97;5043388;28;45325;-68
2022/03/10 05:41:00;;;;;;;;;27.00;26.50;;;;;9.42;54.57;101781.06;5047361;28;45551;-68
2022/03/10 05:43:25;;;;;;;;;40.25;29.50;;;;;9.39;54.01;101770.63;5043522;28;45367;-68
2022/03/10 05:45:51;;;;;;;;;30.50;28.25;;;;;9.39;54.43;101770.63;5042564;28;45396;-67
2022/03/10 05:48:17;;;;;;;;;49.00;35.50;;;;;9.38;54.13;101774.19;5042976;28;45269;-68
2022/03/10 05:50:42;;;;;;;;;45.00;33.75;;;;;9.37;54.65;101772.47;5046771;28;45447;-68
2022/03/10 05:53:08;;;;;;;;;42.00;31.25;;;;;9.34;54.23;101769.09;5053072;28;45364;-67
2022/03/10 05:55:34;;;;;;;;;34.00;27.25;;;;;9.34;54.70;101780.47;5042419;28;45423;-68
2022/03/10 05:57:59;;;;;;;;;31.25;31.25;;;;;9.34;54.61;101779.63;5042814;28;45391;-68
2022/03/10 06:00:25;;;;;;;;;46.25;30.75;;;;;9.32;54.42;101776.16;5043092;28;45470;-68
2022/03/10 06:02:50;;;;;;;;;37.00;30.75;;;;;9.30;54.96;101784.13;5042639;28;45428;-68
2022/03/10 06:05:16;;;;;;;;;39.50;35.25;;;;;9.30;54.75;101789.38;5042216;28;45404;-67
2022/03/10 06:07:42;;;;;;;;;38.25;31.75;;;;;9.29;55.12;101784.19;5047725;28;45637;-68
2022/03/10 06:10:08;;;;;;;;;39.50;29.50;;;;;9.27;54.68;101781.63;5046144;28;45370;-68
2022/03/10 06:12:35;;;;;;;;;41.00;32.25;;;;;9.27;54.94;101786.03;5042225;28;45610;-68
2022/03/10 06:15:03;;;;;;;;;38.25;32.00;;;;;9.23;54.67;101780.00;5040562;28;46419;-68
2022/03/10 06:17:31;;;;;;;;;48.75;33.75;;;;;9.21;54.74;101782.69;5040747;28;45424;-68
2022/03/10 06:19:58;;;;;;;;;41.50;35.25;;;;;9.21;55.10;101782.69;5037661;28;45506;-68
2022/03/10 06:22:26;;;;;;;;;42.75;34.75;;;;;9.21;55.02;101780.06;5060823;28;45382;-68
2022/03/10 06:24:52;;;;;;;;;38.75;31.25;;;;;9.22;55.35;101775.66;5061757;28;45547;-68
2022/03/10 06:27:18;;;;;;;;;30.75;29.00;;;;;9.22;55.64;101778.28;5062482;28;45417;-68
2022/03/10 06:29:45;;;;;;;;;38.25;33.25;;;;;9.23;55.28;101791.38;5061416;28;45514;-68
2022/03/10 06:32:14;;;;;;;;;45.00;35.00;;;;;9.26;55.55;101786.94;5049518;28;45664;-68
2022/03/10 06:34:40;;;;;;;;;33.75;31.00;;;;;9.28;55.33;101790.38;5049457;28;46092;-68
2022/03/10 06:37:06;;;;;;;;;47.25;37.25;;;;;9.30;55.09;101786.75;5049840;28;45402;-68
2022/03/10 06:39:32;;;;;;;;;46.25;37.50;;;;;9.30;55.64;101785.91;5054041;28;45571;-68
2022/03/10 06:41:58;;;;;;;;;46.75;35.25;;;;;9.34;55.10;101790.16;5050887;28;45541;-67
2022/03/10 06:44:24;;;;;;;;;38.25;34.00;;;;;9.36;55.47;101788.31;5051193;28;46060;-68
2022/03/10 06:46:50;;;;;;;;;51.25;34.75;;;;;9.39;55.58;101791.66;5043696;28;45803;-67
2022/03/10 06:49:16;;;;;;;;;34.75;30.00;;;;;9.41;55.14;101797.75;5038670;28;45521;-67
2022/03/10 06:51:41;;;;;;;;;41.25;34.75;;;;;9.43;55.47;101798.53;5051378;28;45593;-67
2022/03/10 06:54:06;;;;;;;;;41.75;35.25;;;;;9.46;55.33;101792.28;5060001;28;45497;-67
2022/03/10 06:56:32;;;;;;;;;39.25;33.00;;;;;9.50;55.39;101791.28;5048992;28;45411;-63
2022/03/10 06:58:58;;;;;;;;;41.50;31.50;;;;;9.52;55.14;101792.94;5060547;28;45366;-63
2022/03/10 07:01:23;;;;;;;;;41.25;34.25;;;;;9.58;55.38;101798.88;5050440;28;45298;-63
2022/03/10 07:03:51;;;;;;;;;45.00;33.75;;;;;9.67;54.91;101804.66;5047888;28;46031;-66
2022/03/10 07:06:17;;;;;;;;;38.50;31.25;;;;;9.75;54.91;101806.97;5052882;28;45584;-66
2022/03/10 07:08:42;;;;;;;;;39.25;33.75;;;;;9.81;55.21;101808.53;5042630;28;45285;-67
2022/03/10 07:11:08;;;;;;;;;42.00;34.50;;;;;9.88;55.13;101810.84;5050495;28;45585;-67
2022/03/10 07:13:35;;;;;;;;;41.75;33.50;;;;;9.96;54.57;101806.16;5059441;28;45415;-68
2022/03/10 07:16:01;;;;;;;;;36.50;33.00;;;;;10.03;54.57;101817.25;5061384;28;45426;-67
2022/03/10 07:18:26;;;;;;;;;54.00;39.00;;;;;10.07;54.71;101806.56;5054513;28;45413;-68
2022/03/10 07:20:52;;;;;;;;;35.50;31.25;;;;;10.12;54.76;101814.28;5047827;28;45345;-68
2022/03/10 07:23:17;;;;;;;;;37.75;30.50;;;;;10.15;54.79;101816.78;5041551;28;45462;-68
2022/03/10 07:25:43;;;;;;;;;33.50;30.00;;;;;10.20;54.78;101822.75;5041743;28;45222;-68
2022/03/10 07:28:09;;;;;;;;;36.25;28.50;;;;;10.23;54.12;101824.41;5041535;28;45473;-68
2022/03/10 07:30:36;;;;;;;;;42.00;35.75;;;;;10.29;54.66;101822.41;5041052;28;45334;-68
2022/03/10 07:33:01;;;;;;;;;38.00;35.25;;;;;10.32;53.96;101816.13;5041407;28;45468;-68
2022/03/10 07:35:27;;;;;;;;;33.25;30.75;;;;;10.33;53.94;101821.34;5041510;28;45340;-68
2022/03/10 07:37:54;;;;;;;;;41.50;33.00;;;;;10.34;54.22;101817.78;5040870;28;45602;-67
2022/03/10 07:40:20;;;;;;;;;35.75;31.00;;;;;10.39;54.28;101820.22;5041986;28;46406;-68
2022/03/10 07:42:46;;;;;;;;;39.25;33.75;;;;;10.42;53.88;101814.81;5040164;28;45521;-68
2022/03/10 07:45:12;;;;;;;;;45.75;37.25;;;;;10.48;53.75;101819.00;5040566;28;45460;-68
2022/03/10 07:47:39;;;;;;;;;37.00;33.00;;;;;10.50;54.21;101819.78;5040253;28;45396;-68
2022/03/10 07:50:06;;;;;;;;;43.50;35.50;;;;;10.55;53.64;101828.34;5051135;28;45468;-68
2022/03/10 07:52:32;;;;;;;;;44.00;37.50;;;;;10.57;53.77;101822.09;5051392;28;46001;-68
2022/03/10 07:54:58;;;;;;;;;39.25;31.75;;;;;10.59;54.00;101820.28;5041032;28;45358;-68
2022/03/10 07:57:23;;;;;;;;;33.75;29.25;;;;;10.63;54.22;101826.25;5051475;28;45399;-68
2022/03/10 07:59:50;;;;;;;;;33.25;27.25;;;;;10.66;54.17;101820.00;5048980;28;45320;-68
2022/03/10 08:02:16;;;;;;;;;41.00;33.00;;;;;10.68;53.39;101824.28;5045572;28;45486;-69
2022/03/10 08:04:41;;;;;;;;;38.25;29.00;;;;;10.70;53.93;101825.09;5040902;28;45318;-68
2022/03/10 08:07:07;;;;;;;;;39.50;34.00;;;;;10.74;53.81;101825.78;5041140;28;45230;-69
2022/03/10 08:09:32;;;;;;;;;34.50;28.75;;;;;10.77;53.96;101823.03;5041057;28;45560;-68
2022/03/10 08:11:58;;;;;;;;;44.75;30.75;;;;;10.79;53.98;101819.41;5040788;28;46162;-68
2022/03/10 08:14:23;;;;;;;;;42.50;36.00;;;;;10.83;53.97;101820.16;5040856;28;45317;-68
2022/03/10 08:16:50;;;;;;;;;33.00;29.25;;;;;10.86;53.80;101820.00;5041072;28;45294;-68
2022/03/10 08:19:16;;;;;;;;;41.00;33.25;;;;;10.94;53.38;101824.94;5040932;28;45495;-68
2022/03/10 08:21:42;;;;;;;;;38.50;35.00;;;;;10.98;53.66;101818.59;5040670;28;46655;-68
2022/03/10 08:24:08;;;;;;;;;44.50;34.00;;;;;11.08;53.30;101820.78;5040832;28;45278;-67
2022/03/10 08:26:34;;;;;;;;;40.75;34.25;;;;;11.13;53.42;101826.69;5040779;28;45304;-68
2022/03/10 08:29:00;;;;;;;;;40.50;35.00;;;;;11.22;53.56;101825.47;5041062;28;45488;-68
2022/03/10 08:31:26;;;;;;;;;37.50;28.50;;;;;11.29;53.20;101824.25;5040321;28;46250;-68
2022/03/10 08:33:51;;;;;;;;;36.75;33.50;;;;;11.38;52.92;101820.38;5040638;28;45249;-68
2022/03/10 08:36:17;;;;;;;;;46.50;35.50;;;;;11.45;52.97;101816.50;5022768;28;45368;-68
2022/03/10 08:38:42;;;;;;;;;34.00;28.25;;;;;11.53;52.68;101810.84;5041031;28;45614;-67
2022/03/10 08:41:09;;;;;;;;;37.75;28.00;;;;;11.61;52.80;101812.25;5045394;28;46087;-68
2022/03/10 08:43:37;;;;;;;;;38.00;32.25;;;;;11.67;52.62;101811.94;5040374;28;45302;-68
2022/03/10 08:46:03;;;;;;;;;30.50;29.50;;;;;11.73;52.59;101813.44;5040337;28;45505;-67
2022/03/10 08:48:32;;;;;;;;;31.75;29.25;;;;;11.79;52.31;101812.31;5040807;28;45324;-68
2022/03/10 08:50:59;;;;;;;;;35.00;26.50;;;;;11.84;52.05;101813.81;5059290;28;45486;-67
2022/03/10 08:53:24;;;;;;;;;27.25;25.75;;;;;11.92;52.24;101810.81;5060455;28;45170;-68
2022/03/10 08:55:50;;;;;;;;;32.75;27.75;;;;;11.99;52.04;101809.59;5060649;28;45428;-69
2022/03/10 08:58:15;;;;;;;;;36.50;33.50;;;;;12.07;52.06;101809.22;5061103;28;45205;-67
2022/03/10 09:00:43;;;;;;;;;35.00;29.00;;;;;12.13;52.08;101811.56;5054650;28;46059;-67
2022/03/10 09:03:08;;;;;;;;;36.25;32.25;;;;;12.18;51.85;101804.28;5040233;28;45380;-68
2022/03/10 09:05:36;;;;;;;;;31.25;28.00;;;;;12.25;51.66;101808.34;5040388;28;45312;-67
2022/03/10 09:08:02;;;;;;;;;35.25;33.00;;;;;12.29;51.79;101799.31;5039950;28;45365;-67
2022/03/10 09:10:27;;;;;;;;;34.75;29.50;;;;;12.34;51.23;101801.75;5040102;28;46130;-67
2022/03/10 09:12:53;;;;;;;;;45.25;31.25;;;;;12.39;51.41;101805.84;5040393;28;45239;-67
2022/03/10 09:15:19;;;;;;;;;29.75;29.00;;;;;12.44;51.72;101800.34;5040342;28;45453;-67
2022/03/10 09:17:45;;;;;;;;;36.50;33.75;;;;;12.50;50.90;101808.84;5040169;28;45186;-67
2022/03/10 09:20:13;;;;;;;;;35.00;32.25;;;;;12.57;51.34;101799.66;5040052;28;46723;-67
2022/03/10 09:22:39;;;;;;;;;48.25;33.00;;;;;12.66;51.22;101802.78;5040362;28;45270;-68
2022/03/10 09:25:08;;;;;;;;;31.25;30.25;;;;;12.72;50.66;101800.69;5039942;28;45277;-68
2022/03/10 09:27:38;;;;;;;;;39.75;35.00;;;;;12.79;50.87;101795.91;5040221;28;45644;-68
2022/03/10 09:30:05;;;;;;;;;33.00;29.00;;;;;12.88;50.68;101799.88;5046343;28;45386;-68
2022/03/10 09:32:35;;;;;;;;;34.75;28.25;;;;;12.94;50.78;101803.03;5060086;28;45415;-67
2022/03/10 09:35:02;;;;;;;;;33.50;28.00;;;;;13.02;50.26;101808.78;5060253;28;45293;-68
2022/03/10 09:37:28;;;;;;;;;34.25;29.75;;;;;13.08;50.50;101797.88;5060371;28;45416;-66
2022/03/10 09:39:53;;;;;;;;;39.00;29.25;;;;;13.17;50.54;101800.97;5052451;28;45923;-67
2022/03/10 09:42:23;;;;;;;;;33.25;28.75;;;;;13.19;50.54;101781.44;5039904;28;45332;-67
2022/03/10 09:44:49;;;;;;;;;36.00;27.00;;;;;13.29;50.15;101789.78;5040132;28;45322;-67
2022/03/10 09:47:16;;;;;;;;;27.25;22.00;;;;;13.36;50.07;101785.88;5039747;28;45203;-67
2022/03/10 09:49:42;;;;;;;;;28.75;27.75;;;;;13.41;50.12;101783.81;5047868;28;46157;-67
2022/03/10 09:52:11;;;;;;;;;31.00;26.25;;;;;13.48;50.02;101787.00;5041741;28;45356;-67
2022/03/10 09:54:37;;;;;;;;;26.50;23.00;;;;;13.54;49.81;101789.31;5061194;28;45328;-67
2022/03/10 09:57:02;;;;;;;;;27.75;23.75;;;;;13.58;49.86;101788.19;5063648;28;45341;-67
2022/03/10 09:59:28;;;;;;;;;31.00;21.00;;;;;13.62;49.79;101787.94;5063190;28;46167;-67
2022/03/10 10:01:54;;;;;;;;;28.50;23.75;;;;;13.70;49.55;101787.53;5047368;28;45703;-67
2022/03/10 10:04:21;;;;;;;;;28.75;21.50;;;;;13.78;49.59;101784.44;5043191;28;45289;-67
2022/03/10 10:07:03;;;;;;;;;25.00;23.25;;;;;13.85;49.31;101786.66;5043057;28;45574;-67
2022/03/10 10:09:42;;;;;;;;;27.75;22.50;;;;;13.90;49.12;101781.97;5042810;28;46124;-67
2022/03/10 10:12:09;;;;;;;;;35.00;27.00;;;;;13.95;49.17;101779.06;5049969;28;45419;-67
2022/03/10 10:14:53;;;;;;;;;30.75;24.75;;;;;14.00;48.99;101777.00;5063015;28;45422;-67
2022/03/10 10:17:29;;;;;;;;;28.00;22.00;;;;;14.04;48.67;101780.31;5063029;28;45411;-67
2022/03/10 10:19:57;;;;;;;;;28.25;22.75;;;;;14.06;48.76;101774.00;5062719;28;45348;-67
2022/03/10 10:22:24;;;;;;;;;26.25;22.75;;;;;14.09;49.01;101776.47;5062968;28;45318;-68
2022/03/10 10:24:51;;;;;;;;;27.50;24.25;;;;;14.13;48.68;101770.03;5062422;28;45242;-67
2022/03/10 10:27:19;;;;;;;;;26.25;24.25;;;;;14.19;49.02;101769.69;5062939;28;45410;-67
2022/03/10 10:29:53;;;;;;;;;24.50;23.75;;;;;14.29;48.66;101767.34;5062723;28;45382;-67
2022/03/10 10:32:32;;;;;;;;;28.00;24.25;;;;;14.37;48.91;101765.09;5062792;28;45478;-67
2022/03/10 10:35:07;;;;;;;;;28.75;23.50;;;;;14.43;48.50;101748.84;5063077;28;45443;-67
2022/03/10 10:37:34;;;;;;;;;23.00;20.25;;;;;14.52;48.37;101761.59;5062900;28;45631;-67
2022/03/10 10:39:59;;;;;;;;;29.75;23.75;;;;;14.57;48.58;101761.31;5053120;28;46188;-67
2022/03/10 10:42:30;;;;;;;;;31.75;25.50;;;;;14.62;48.31;101753.09;5042313;28;45402;-67
2022/03/10 10:44:58;;;;;;;;;23.25;16.75;;;;;14.69;48.19;101743.81;5043255;28;45452;-67
2022/03/10 10:47:26;;;;;;;;;18.75;16.75;;;;;14.74;48.21;101739.94;5042293;28;45502;-67
2022/03/10 10:50:05;;;;;;;;;26.75;21.75;;;;;14.78;48.16;101737.97;5052448;28;46243;-67
2022/03/10 10:52:40;;;;;;;;;20.00;19.50;;;;;14.87;48.56;101734.75;5062468;28;45384;-67
2022/03/10 10:55:11;;;;;;;;;22.25;20.50;;;;;14.94;47.77;101733.44;5062262;28;45376;-68
2022/03/10 10:57:38;;;;;;;;;26.25;19.75;;;;;15.02;47.82;101735.63;5062650;28;45271;-67
2022/03/10 11:00:22;;;;;;;;;38.00;30.50;;;;;15.07;47.33;101726.41;5062223;28;45376;-68
2022/03/10 11:02:49;;;;;;;;;22.75;18.75;;;;;15.13;48.10;101719.84;5052959;28;45446;-67
2022/03/10 11:05:15;;;;;;;;;28.25;21.50;;;;;15.21;47.94;101725.53;5042175;28;45462;-67
2022/03/10 11:07:41;;;;;;;;;26.00;23.00;;;;;15.28;47.53;101720.69;5041275;28;45393;-67
2022/03/10 11:10:11;;;;;;;;;22.50;18.00;;;;;15.36;47.47;101723.72;5041762;28;45399;-68
2022/03/10 11:12:40;;;;;;;;;24.00;19.50;;;;;15.40;47.40;101719.06;5041056;28;45503;-67
2022/03/10 11:15:07;;;;;;;;;17.25;16.00;;;;;15.45;47.07;101709.00;5042212;28;45324;-67